sensor_id;sensor_type;location;lat;lon;timestamp;temperature;humidity
19781;DHT22;10050;55.492;13.506;2024-01-15T00:07:30;1.50;99.90
19781;DHT22;10050;55.492;13.506;2024-01-15T00:09:59;1.50;99.90
19781;DHT22;10050;55.492;13.506;2024-01-15T00:12:30;1.40;99.90
19781;DHT22;10050;55.492;13.506;2024-01-15T00:17:49;1.40;99.90
19781;DHT22;10050;55.492;13.506;2024-01-15T00:20:15;1.40;99.90
19781;DHT22;10050;55.492;13.506;2024-01-15T00:22:44;1.40;99.90
19781;DHT22;10050;55.492;13.506;2024-01-15T00:25:10;1.40;99.90
19781;DHT22;10050;55.492;13.506;2024-01-15T00:27:35;1.30;99.90
19781;DHT22;10050;55.492;13.506;2024-01-15T00:30:02;1.30;99.90
19781;DHT22;10050;55.492;13.506;2024-01-15T00:32:39;1.20;99.90
19781;DHT22;10050;55.492;13.506;2024-01-15T00:35:19;1.30;99.90
19781;DHT22;10050;55.492;13.506;2024-01-15T00:37:49;1.20;99.90
19781;DHT22;10050;55.492;13.506;2024-01-15T00:40:15;1.20;99.90
19781;DHT22;10050;55.492;13.506;2024-01-15T00:42:40;1.20;99.90
19781;DHT22;10050;55.492;13.506;2024-01-15T00:45:11;1.20;99.90
19781;DHT22;10050;55.492;13.506;2024-01-15T00:47:37;1.20;99.90
19781;DHT22;10050;55.492;13.506;2024-01-15T00:50:03;1.20;99.90
19781;DHT22;10050;55.492;13.506;2024-01-15T00:52:29;1.20;99.90
19781;DHT22;10050;55.492;13.506;2024-01-15T00:58:51;1.30;99.90
19781;DHT22;10050;55.492;13.506;2024-01-15T01:01:19;1.30;99.90
19781;DHT22;10050;55.492;13.506;2024-01-15T01:04:32;1.30;99.90
19781;DHT22;10050;55.492;13.506;2024-01-15T01:07:49;1.30;99.90
19781;DHT22;10050;55.492;13.506;2024-01-15T01:10:47;1.30;99.90
19781;DHT22;10050;55.492;13.506;2024-01-15T01:13:27;1.30;99.90
19781;DHT22;10050;55.492;13.506;2024-01-15T01:16:05;1.40;99.90
19781;DHT22;10050;55.492;13.506;2024-01-15T01:18:35;1.30;99.90
19781;DHT22;10050;55.492;13.506;2024-01-15T01:21:03;1.40;99.90
19781;DHT22;10050;55.492;13.506;2024-01-15T01:23:59;1.40;99.90
19781;DHT22;10050;55.492;13.506;2024-01-15T01:26:36;1.40;99.90
19781;DHT22;10050;55.492;13.506;2024-01-15T01:29:38;1.50;99.90
19781;DHT22;10050;55.492;13.506;2024-01-15T01:35:51;1.50;99.90
19781;DHT22;10050;55.492;13.506;2024-01-15T01:38:29;1.50;99.90
19781;DHT22;10050;55.492;13.506;2024-01-15T01:41:15;1.50;99.90
19781;DHT22;10050;55.492;13.506;2024-01-15T01:44:10;1.50;99.90
19781;DHT22;10050;55.492;13.506;2024-01-15T01:46:41;1.50;99.90
19781;DHT22;10050;55.492;13.506;2024-01-15T01:49:10;1.50;99.90
19781;DHT22;10050;55.492;13.506;2024-01-15T01:55:16;1.50;99.90
19781;DHT22;10050;55.492;13.506;2024-01-15T01:57:51;1.50;99.90
19781;DHT22;10050;55.492;13.506;2024-01-15T02:00:42;1.50;99.90
19781;DHT22;10050;55.492;13.506;2024-01-15T02:03:23;1.50;99.90
19781;DHT22;10050;55.492;13.506;2024-01-15T02:06:03;1.50;99.90
19781;DHT22;10050;55.492;13.506;2024-01-15T02:08:29;1.50;99.90
19781;DHT22;10050;55.492;13.506;2024-01-15T02:10:58;1.50;99.90
19781;DHT22;10050;55.492;13.506;2024-01-15T02:13:30;1.50;99.90
19781;DHT22;10050;55.492;13.506;2024-01-15T02:15:58;1.50;99.90
19781;DHT22;10050;55.492;13.506;2024-01-15T02:18:38;1.50;99.90
19781;DHT22;10050;55.492;13.506;2024-01-15T02:21:16;1.50;99.90
19781;DHT22;10050;55.492;13.506;2024-01-15T02:23:56;1.50;99.90
19781;DHT22;10050;55.492;13.506;2024-01-15T02:26:24;1.50;99.90
19781;DHT22;10050;55.492;13.506;2024-01-15T02:28:51;1.50;99.90
19781;DHT22;10050;55.492;13.506;2024-01-15T02:31:18;1.50;99.90
19781;DHT22;10050;55.492;13.506;2024-01-15T02:33:44;1.50;99.90
19781;DHT22;10050;55.492;13.506;2024-01-15T02:36:11;1.60;99.90
19781;DHT22;10050;55.492;13.506;2024-01-15T02:38:42;1.60;99.90
19781;DHT22;10050;55.492;13.506;2024-01-15T02:41:13;1.50;99.90
19781;DHT22;10050;55.492;13.506;2024-01-15T02:43:42;1.50;99.90
19781;DHT22;10050;55.492;13.506;2024-01-15T02:46:10;1.50;99.90
19781;DHT22;10050;55.492;13.506;2024-01-15T02:48:35;1.50;99.90
19781;DHT22;10050;55.492;13.506;2024-01-15T02:51:23;1.50;99.90
19781;DHT22;10050;55.492;13.506;2024-01-15T02:53:58;1.40;99.90
19781;DHT22;10050;55.492;13.506;2024-01-15T02:56:34;1.50;99.90
19781;DHT22;10050;55.492;13.506;2024-01-15T02:59:29;1.50;99.90
19781;DHT22;10050;55.492;13.506;2024-01-15T03:02:25;1.50;99.90
19781;DHT22;10050;55.492;13.506;2024-01-15T03:05:16;1.40;99.90
19781;DHT22;10050;55.492;13.506;2024-01-15T03:08:04;1.50;99.90
19781;DHT22;10050;55.492;13.506;2024-01-15T03:10:57;1.50;99.90
19781;DHT22;10050;55.492;13.506;2024-01-15T03:13:30;1.50;99.90
19781;DHT22;10050;55.492;13.506;2024-01-15T03:15:56;1.50;99.90
19781;DHT22;10050;55.492;13.506;2024-01-15T03:18:24;1.50;99.90
19781;DHT22;10050;55.492;13.506;2024-01-15T03:20:56;1.50;99.90
19781;DHT22;10050;55.492;13.506;2024-01-15T03:23:39;1.60;99.90
19781;DHT22;10050;55.492;13.506;2024-01-15T03:26:25;1.50;99.90
19781;DHT22;10050;55.492;13.506;2024-01-15T03:28:58;1.50;99.90
19781;DHT22;10050;55.492;13.506;2024-01-15T03:31:30;1.60;99.90
19781;DHT22;10050;55.492;13.506;2024-01-15T03:34:32;1.50;99.90
19781;DHT22;10050;55.492;13.506;2024-01-15T03:37:51;1.50;99.90
19781;DHT22;10050;55.492;13.506;2024-01-15T03:41:01;1.50;99.90
19781;DHT22;10050;55.492;13.506;2024-01-15T03:44:04;1.60;99.90
19781;DHT22;10050;55.492;13.506;2024-01-15T03:46:57;1.60;99.90
19781;DHT22;10050;55.492;13.506;2024-01-15T03:52:55;1.60;99.90
19781;DHT22;10050;55.492;13.506;2024-01-15T03:55:53;1.60;99.90
19781;DHT22;10050;55.492;13.506;2024-01-15T04:02:27;1.60;99.90
19781;DHT22;10050;55.492;13.506;2024-01-15T04:05:25;1.60;99.90
19781;DHT22;10050;55.492;13.506;2024-01-15T04:08:13;1.60;99.90
19781;DHT22;10050;55.492;13.506;2024-01-15T04:11:21;1.60;99.90
19781;DHT22;10050;55.492;13.506;2024-01-15T04:13:51;1.60;99.90
19781;DHT22;10050;55.492;13.506;2024-01-15T04:16:20;1.50;99.90
19781;DHT22;10050;55.492;13.506;2024-01-15T04:18:48;1.60;99.90
19781;DHT22;10050;55.492;13.506;2024-01-15T04:21:17;1.50;99.90
19781;DHT22;10050;55.492;13.506;2024-01-15T04:23:43;1.60;99.90
19781;DHT22;10050;55.492;13.506;2024-01-15T04:26:11;1.60;99.90
19781;DHT22;10050;55.492;13.506;2024-01-15T04:28:44;1.60;99.90
19781;DHT22;10050;55.492;13.506;2024-01-15T04:31:29;1.60;99.90
19781;DHT22;10050;55.492;13.506;2024-01-15T04:37:07;1.60;99.90
19781;DHT22;10050;55.492;13.506;2024-01-15T04:39:39;1.50;99.90
19781;DHT22;10050;55.492;13.506;2024-01-15T04:42:25;1.50;99.90
19781;DHT22;10050;55.492;13.506;2024-01-15T04:45:06;1.40;99.90
19781;DHT22;10050;55.492;13.506;2024-01-15T04:47:38;1.40;99.90
19781;DHT22;10050;55.492;13.506;2024-01-15T04:50:08;1.40;99.90
19781;DHT22;10050;55.492;13.506;2024-01-15T04:56:26;1.30;99.90
19781;DHT22;10050;55.492;13.506;2024-01-15T04:58:52;1.30;99.90
19781;DHT22;10050;55.492;13.506;2024-01-15T05:01:18;1.20;99.90
19781;DHT22;10050;55.492;13.506;2024-01-15T05:03:44;1.20;99.90
19781;DHT22;10050;55.492;13.506;2024-01-15T05:06:15;1.20;99.90
19781;DHT22;10050;55.492;13.506;2024-01-15T05:08:46;1.20;99.90
19781;DHT22;10050;55.492;13.506;2024-01-15T05:11:14;1.30;99.90
19781;DHT22;10050;55.492;13.506;2024-01-15T05:13:40;1.20;99.90
19781;DHT22;10050;55.492;13.506;2024-01-15T05:16:06;1.20;99.90
19781;DHT22;10050;55.492;13.506;2024-01-15T05:18:31;1.20;99.90
19781;DHT22;10050;55.492;13.506;2024-01-15T05:20:57;1.20;99.90
19781;DHT22;10050;55.492;13.506;2024-01-15T05:23:23;1.20;99.90
19781;DHT22;10050;55.492;13.506;2024-01-15T05:25:50;1.20;99.90
19781;DHT22;10050;55.492;13.506;2024-01-15T05:28:16;1.10;99.90
19781;DHT22;10050;55.492;13.506;2024-01-15T05:30:42;1.10;99.90
19781;DHT22;10050;55.492;13.506;2024-01-15T05:33:12;1.00;99.90
19781;DHT22;10050;55.492;13.506;2024-01-15T05:35:40;1.00;99.90
19781;DHT22;10050;55.492;13.506;2024-01-15T05:38:09;1.00;99.90
19781;DHT22;10050;55.492;13.506;2024-01-15T05:40:40;1.00;99.90
19781;DHT22;10050;55.492;13.506;2024-01-15T05:43:14;1.00;99.90
19781;DHT22;10050;55.492;13.506;2024-01-15T05:45:43;1.00;99.90
19781;DHT22;10050;55.492;13.506;2024-01-15T05:48:20;1.00;99.90
19781;DHT22;10050;55.492;13.506;2024-01-15T05:50:47;1.10;99.90
19781;DHT22;10050;55.492;13.506;2024-01-15T05:53:18;1.00;99.90
19781;DHT22;10050;55.492;13.506;2024-01-15T05:55:48;1.00;99.90
19781;DHT22;10050;55.492;13.506;2024-01-15T05:58:45;1.00;99.90
19781;DHT22;10050;55.492;13.506;2024-01-15T06:01:16;1.00;99.90
19781;DHT22;10050;55.492;13.506;2024-01-15T06:07:54;1.10;99.90
19781;DHT22;10050;55.492;13.506;2024-01-15T06:25:06;1.00;99.90
19781;DHT22;10050;55.492;13.506;2024-01-15T06:27:41;1.00;99.90
19781;DHT22;10050;55.492;13.506;2024-01-15T06:30:10;1.00;99.90
19781;DHT22;10050;55.492;13.506;2024-01-15T06:32:41;1.00;99.90
19781;DHT22;10050;55.492;13.506;2024-01-15T06:35:07;1.10;99.90
19781;DHT22;10050;55.492;13.506;2024-01-15T06:37:34;1.00;99.90
19781;DHT22;10050;55.492;13.506;2024-01-15T06:40:07;1.00;99.90
19781;DHT22;10050;55.492;13.506;2024-01-15T06:42:36;1.00;99.90
19781;DHT22;10050;55.492;13.506;2024-01-15T06:45:32;1.00;99.90
19781;DHT22;10050;55.492;13.506;2024-01-15T06:48:08;1.00;99.90
19781;DHT22;10050;55.492;13.506;2024-01-15T06:50:38;1.00;99.90
19781;DHT22;10050;55.492;13.506;2024-01-15T06:53:24;1.00;99.90
19781;DHT22;10050;55.492;13.506;2024-01-15T06:56:32;1.00;99.90
19781;DHT22;10050;55.492;13.506;2024-01-15T07:06:12;0.90;99.90
19781;DHT22;10050;55.492;13.506;2024-01-15T07:08:43;0.90;99.90
19781;DHT22;10050;55.492;13.506;2024-01-15T07:11:32;0.90;99.90
19781;DHT22;10050;55.492;13.506;2024-01-15T07:14:04;0.90;99.90
19781;DHT22;10050;55.492;13.506;2024-01-15T07:16:40;0.90;99.90
19781;DHT22;10050;55.492;13.506;2024-01-15T07:27:28;1.00;99.90
19781;DHT22;10050;55.492;13.506;2024-01-15T07:30:30;1.00;99.90
19781;DHT22;10050;55.492;13.506;2024-01-15T07:33:39;1.00;99.90
19781;DHT22;10050;55.492;13.506;2024-01-15T07:36:05;1.00;99.90
19781;DHT22;10050;55.492;13.506;2024-01-15T07:38:32;1.00;99.90
19781;DHT22;10050;55.492;13.506;2024-01-15T07:40:57;1.00;99.90
19781;DHT22;10050;55.492;13.506;2024-01-15T07:43:23;1.10;99.90
19781;DHT22;10050;55.492;13.506;2024-01-15T07:45:49;1.00;99.90
19781;DHT22;10050;55.492;13.506;2024-01-15T07:48:15;1.00;99.90
19781;DHT22;10050;55.492;13.506;2024-01-15T07:50:40;1.00;99.90
19781;DHT22;10050;55.492;13.506;2024-01-15T07:53:09;1.00;99.90
19781;DHT22;10050;55.492;13.506;2024-01-15T07:55:34;1.10;99.90
19781;DHT22;10050;55.492;13.506;2024-01-15T07:58:00;1.20;99.90
19781;DHT22;10050;55.492;13.506;2024-01-15T08:00:27;1.20;99.90
19781;DHT22;10050;55.492;13.506;2024-01-15T08:02:52;1.20;99.90
19781;DHT22;10050;55.492;13.506;2024-01-15T08:05:18;1.10;99.90
19781;DHT22;10050;55.492;13.506;2024-01-15T08:07:48;1.10;99.90
19781;DHT22;10050;55.492;13.506;2024-01-15T08:10:14;1.10;99.90
19781;DHT22;10050;55.492;13.506;2024-01-15T08:12:47;1.20;99.90
19781;DHT22;10050;55.492;13.506;2024-01-15T08:15:13;1.20;99.90
19781;DHT22;10050;55.492;13.506;2024-01-15T08:17:38;1.20;99.90
19781;DHT22;10050;55.492;13.506;2024-01-15T08:20:04;1.30;99.90
19781;DHT22;10050;55.492;13.506;2024-01-15T08:22:30;1.40;99.90
19781;DHT22;10050;55.492;13.506;2024-01-15T08:24:56;2.50;99.90
19781;DHT22;10050;55.492;13.506;2024-01-15T08:27:22;3.80;99.90
19781;DHT22;10050;55.492;13.506;2024-01-15T08:29:49;3.80;99.90
19781;DHT22;10050;55.492;13.506;2024-01-15T08:32:15;3.80;99.90
19781;DHT22;10050;55.492;13.506;2024-01-15T08:34:41;3.40;99.90
19781;DHT22;10050;55.492;13.506;2024-01-15T08:37:15;2.90;99.90
19781;DHT22;10050;55.492;13.506;2024-01-15T08:39:44;2.70;99.90
19781;DHT22;10050;55.492;13.506;2024-01-15T08:42:09;2.40;99.90
19781;DHT22;10050;55.492;13.506;2024-01-15T08:44:36;2.10;99.90
19781;DHT22;10050;55.492;13.506;2024-01-15T08:47:06;1.90;99.90
19781;DHT22;10050;55.492;13.506;2024-01-15T08:49:32;1.80;99.90
19781;DHT22;10050;55.492;13.506;2024-01-15T08:51:59;1.70;99.90
19781;DHT22;10050;55.492;13.506;2024-01-15T08:54:28;1.60;99.90
19781;DHT22;10050;55.492;13.506;2024-01-15T08:56:53;1.50;99.90
19781;DHT22;10050;55.492;13.506;2024-01-15T08:59:19;1.40;99.90
19781;DHT22;10050;55.492;13.506;2024-01-15T09:01:50;1.30;99.90
19781;DHT22;10050;55.492;13.506;2024-01-15T09:04:16;1.20;99.90
19781;DHT22;10050;55.492;13.506;2024-01-15T09:06:47;1.20;99.90
19781;DHT22;10050;55.492;13.506;2024-01-15T09:09:13;1.10;99.90
19781;DHT22;10050;55.492;13.506;2024-01-15T09:11:42;1.20;99.90
19781;DHT22;10050;55.492;13.506;2024-01-15T09:14:08;1.10;99.90
19781;DHT22;10050;55.492;13.506;2024-01-15T09:16:35;1.10;99.90
19781;DHT22;10050;55.492;13.506;2024-01-15T09:19:00;1.00;99.90
19781;DHT22;10050;55.492;13.506;2024-01-15T09:21:26;1.00;99.90
19781;DHT22;10050;55.492;13.506;2024-01-15T09:23:52;1.00;99.90
19781;DHT22;10050;55.492;13.506;2024-01-15T09:26:20;1.10;99.90
19781;DHT22;10050;55.492;13.506;2024-01-15T09:28:46;1.10;99.90
19781;DHT22;10050;55.492;13.506;2024-01-15T09:31:12;1.00;99.90
19781;DHT22;10050;55.492;13.506;2024-01-15T09:33:37;1.10;99.90
19781;DHT22;10050;55.492;13.506;2024-01-15T09:36:04;1.10;99.90
19781;DHT22;10050;55.492;13.506;2024-01-15T09:38:30;1.10;99.90
19781;DHT22;10050;55.492;13.506;2024-01-15T09:40:58;1.10;99.90
19781;DHT22;10050;55.492;13.506;2024-01-15T09:43:25;1.10;99.90
19781;DHT22;10050;55.492;13.506;2024-01-15T09:45:55;1.10;99.90
19781;DHT22;10050;55.492;13.506;2024-01-15T09:48:29;1.10;99.90
19781;DHT22;10050;55.492;13.506;2024-01-15T09:51:01;1.20;99.90
19781;DHT22;10050;55.492;13.506;2024-01-15T09:53:40;1.20;99.90
19781;DHT22;10050;55.492;13.506;2024-01-15T09:59:50;1.50;99.90
19781;DHT22;10050;55.492;13.506;2024-01-15T10:02:19;1.50;99.90
19781;DHT22;10050;55.492;13.506;2024-01-15T10:04:48;1.60;99.90
19781;DHT22;10050;55.492;13.506;2024-01-15T10:07:17;1.60;99.90
19781;DHT22;10050;55.492;13.506;2024-01-15T10:09:48;1.60;99.90
19781;DHT22;10050;55.492;13.506;2024-01-15T10:12:21;1.50;99.90
19781;DHT22;10050;55.492;13.506;2024-01-15T10:14:56;1.50;99.90
19781;DHT22;10050;55.492;13.506;2024-01-15T10:17:27;1.60;99.90
19781;DHT22;10050;55.492;13.506;2024-01-15T10:19:53;1.60;99.90
19781;DHT22;10050;55.492;13.506;2024-01-15T10:22:21;1.70;99.90
19781;DHT22;10050;55.492;13.506;2024-01-15T10:24:59;1.80;99.90
19781;DHT22;10050;55.492;13.506;2024-01-15T10:27:37;1.70;99.90
19781;DHT22;10050;55.492;13.506;2024-01-15T10:30:09;1.70;99.90
19781;DHT22;10050;55.492;13.506;2024-01-15T10:32:39;1.50;99.90
19781;DHT22;10050;55.492;13.506;2024-01-15T10:38:21;1.20;99.90
19781;DHT22;10050;55.492;13.506;2024-01-15T10:43:58;1.00;99.90
19781;DHT22;10050;55.492;13.506;2024-01-15T10:46:30;0.80;99.90
19781;DHT22;10050;55.492;13.506;2024-01-15T10:49:24;0.70;99.90
19781;DHT22;10050;55.492;13.506;2024-01-15T10:51:59;0.70;99.90
19781;DHT22;10050;55.492;13.506;2024-01-15T10:54:47;0.70;99.90
19781;DHT22;10050;55.492;13.506;2024-01-15T10:57:19;0.60;99.90
19781;DHT22;10050;55.492;13.506;2024-01-15T10:59:47;0.50;99.90
19781;DHT22;10050;55.492;13.506;2024-01-15T11:02:17;0.40;99.90
19781;DHT22;10050;55.492;13.506;2024-01-15T11:04:47;0.30;99.90
19781;DHT22;10050;55.492;13.506;2024-01-15T11:07:14;0.30;99.90
19781;DHT22;10050;55.492;13.506;2024-01-15T11:09:49;0.20;99.90
19781;DHT22;10050;55.492;13.506;2024-01-15T11:12:18;0.00;99.90
19781;DHT22;10050;55.492;13.506;2024-01-15T11:14:49;0.00;99.90
19781;DHT22;10050;55.492;13.506;2024-01-15T11:17:20;-0.10;99.90
19781;DHT22;10050;55.492;13.506;2024-01-15T11:19:48;-0.10;99.90
19781;DHT22;10050;55.492;13.506;2024-01-15T11:25:14;-0.10;99.90
19781;DHT22;10050;55.492;13.506;2024-01-15T11:27:49;-0.10;99.90
19781;DHT22;10050;55.492;13.506;2024-01-15T11:30:30;0.00;99.90
19781;DHT22;10050;55.492;13.506;2024-01-15T11:33:04;-0.10;99.90
19781;DHT22;10050;55.492;13.506;2024-01-15T11:35:48;0.00;99.90
19781;DHT22;10050;55.492;13.506;2024-01-15T11:38:35;-0.10;99.90
19781;DHT22;10050;55.492;13.506;2024-01-15T11:41:01;-0.10;99.90
19781;DHT22;10050;55.492;13.506;2024-01-15T11:46:57;-0.10;99.90
19781;DHT22;10050;55.492;13.506;2024-01-15T11:53:00;-0.20;99.90
19781;DHT22;10050;55.492;13.506;2024-01-15T11:58:25;-0.30;99.90
19781;DHT22;10050;55.492;13.506;2024-01-15T12:00:52;-0.40;99.90
19781;DHT22;10050;55.492;13.506;2024-01-15T12:03:23;-0.30;99.90
19781;DHT22;10050;55.492;13.506;2024-01-15T12:05:52;-0.40;99.90
19781;DHT22;10050;55.492;13.506;2024-01-15T12:08:55;-0.30;99.90
19781;DHT22;10050;55.492;13.506;2024-01-15T12:11:39;-0.40;99.90
19781;DHT22;10050;55.492;13.506;2024-01-15T12:14:16;-0.40;99.90
19781;DHT22;10050;55.492;13.506;2024-01-15T12:16:42;-0.40;99.90
19781;DHT22;10050;55.492;13.506;2024-01-15T12:19:10;-0.50;99.90
19781;DHT22;10050;55.492;13.506;2024-01-15T12:21:42;-0.60;99.90
19781;DHT22;10050;55.492;13.506;2024-01-15T12:24:07;-0.60;99.90
19781;DHT22;10050;55.492;13.506;2024-01-15T12:26:34;-0.60;99.90
19781;DHT22;10050;55.492;13.506;2024-01-15T12:29:02;-0.60;99.90
19781;DHT22;10050;55.492;13.506;2024-01-15T12:31:40;-0.70;99.90
19781;DHT22;10050;55.492;13.506;2024-01-15T12:34:06;-0.60;99.90
19781;DHT22;10050;55.492;13.506;2024-01-15T12:36:31;-0.70;99.90
19781;DHT22;10050;55.492;13.506;2024-01-15T12:39:00;-0.50;99.90
19781;DHT22;10050;55.492;13.506;2024-01-15T12:41:26;-0.70;99.90
19781;DHT22;10050;55.492;13.506;2024-01-15T12:43:51;-0.70;99.90
19781;DHT22;10050;55.492;13.506;2024-01-15T12:46:17;-0.80;99.90
19781;DHT22;10050;55.492;13.506;2024-01-15T12:48:47;-0.80;99.90
19781;DHT22;10050;55.492;13.506;2024-01-15T12:51:12;-0.80;99.90
19781;DHT22;10050;55.492;13.506;2024-01-15T12:53:38;-0.80;99.90
19781;DHT22;10050;55.492;13.506;2024-01-15T12:56:04;-0.80;99.90
19781;DHT22;10050;55.492;13.506;2024-01-15T12:58:29;-0.80;99.90
19781;DHT22;10050;55.492;13.506;2024-01-15T13:00:55;-0.90;99.90
19781;DHT22;10050;55.492;13.506;2024-01-15T13:03:22;-1.00;99.90
19781;DHT22;10050;55.492;13.506;2024-01-15T13:05:48;-0.90;99.90
19781;DHT22;10050;55.492;13.506;2024-01-15T13:08:17;-1.00;99.90
19781;DHT22;10050;55.492;13.506;2024-01-15T13:10:43;-1.00;99.90
19781;DHT22;10050;55.492;13.506;2024-01-15T13:13:08;-1.00;99.90
19781;DHT22;10050;55.492;13.506;2024-01-15T13:15:35;-1.00;99.90
19781;DHT22;10050;55.492;13.506;2024-01-15T13:18:01;-0.90;99.90
19781;DHT22;10050;55.492;13.506;2024-01-15T13:20:26;-0.70;99.90
19781;DHT22;10050;55.492;13.506;2024-01-15T13:22:52;-0.60;99.90
19781;DHT22;10050;55.492;13.506;2024-01-15T13:25:17;-0.60;99.90
19781;DHT22;10050;55.492;13.506;2024-01-15T13:27:43;-0.60;99.90
19781;DHT22;10050;55.492;13.506;2024-01-15T13:30:10;-0.60;99.90
19781;DHT22;10050;55.492;13.506;2024-01-15T13:32:36;-0.60;99.90
19781;DHT22;10050;55.492;13.506;2024-01-15T13:35:02;-0.60;99.90
19781;DHT22;10050;55.492;13.506;2024-01-15T13:37:30;-0.60;99.90
19781;DHT22;10050;55.492;13.506;2024-01-15T13:39:56;-0.60;99.90
19781;DHT22;10050;55.492;13.506;2024-01-15T13:42:21;-0.60;99.90
19781;DHT22;10050;55.492;13.506;2024-01-15T13:44:47;-0.60;99.90
19781;DHT22;10050;55.492;13.506;2024-01-15T13:47:16;-0.60;99.90
19781;DHT22;10050;55.492;13.506;2024-01-15T13:49:41;-0.50;99.90
19781;DHT22;10050;55.492;13.506;2024-01-15T13:52:07;-0.50;99.90
19781;DHT22;10050;55.492;13.506;2024-01-15T13:54:32;-0.70;99.90
19781;DHT22;10050;55.492;13.506;2024-01-15T13:56:58;-0.70;99.90
19781;DHT22;10050;55.492;13.506;2024-01-15T13:59:24;-0.90;99.90
19781;DHT22;10050;55.492;13.506;2024-01-15T14:01:50;-0.90;99.90
19781;DHT22;10050;55.492;13.506;2024-01-15T14:04:16;-0.90;99.90
19781;DHT22;10050;55.492;13.506;2024-01-15T14:06:41;-0.90;99.90
19781;DHT22;10050;55.492;13.506;2024-01-15T14:09:07;-0.90;99.90
19781;DHT22;10050;55.492;13.506;2024-01-15T14:11:36;-0.90;99.90
19781;DHT22;10050;55.492;13.506;2024-01-15T14:14:03;-0.90;99.90
19781;DHT22;10050;55.492;13.506;2024-01-15T14:16:28;-0.90;99.90
19781;DHT22;10050;55.492;13.506;2024-01-15T14:18:55;-0.90;99.90
19781;DHT22;10050;55.492;13.506;2024-01-15T14:21:21;-1.00;99.90
19781;DHT22;10050;55.492;13.506;2024-01-15T14:23:47;-1.10;99.90
19781;DHT22;10050;55.492;13.506;2024-01-15T14:26:12;-1.10;99.90
19781;DHT22;10050;55.492;13.506;2024-01-15T14:28:38;-1.10;99.90
19781;DHT22;10050;55.492;13.506;2024-01-15T14:31:04;-1.20;99.90
19781;DHT22;10050;55.492;13.506;2024-01-15T14:33:31;-1.10;99.90
19781;DHT22;10050;55.492;13.506;2024-01-15T14:35:57;-1.20;99.90
19781;DHT22;10050;55.492;13.506;2024-01-15T14:38:22;-1.20;99.90
19781;DHT22;10050;55.492;13.506;2024-01-15T14:40:49;-1.30;99.90
19781;DHT22;10050;55.492;13.506;2024-01-15T14:43:17;-1.30;99.90
19781;DHT22;10050;55.492;13.506;2024-01-15T14:45:43;-1.40;99.90
19781;DHT22;10050;55.492;13.506;2024-01-15T14:48:09;-1.40;99.90
19781;DHT22;10050;55.492;13.506;2024-01-15T14:50:34;-1.40;99.90
19781;DHT22;10050;55.492;13.506;2024-01-15T14:53:00;-1.50;99.90
19781;DHT22;10050;55.492;13.506;2024-01-15T14:55:26;-1.50;99.90
19781;DHT22;10050;55.492;13.506;2024-01-15T14:57:52;-1.50;99.90
19781;DHT22;10050;55.492;13.506;2024-01-15T15:00:18;-1.60;99.90
19781;DHT22;10050;55.492;13.506;2024-01-15T15:02:44;-1.60;99.90
19781;DHT22;10050;55.492;13.506;2024-01-15T15:05:10;-1.60;99.90
19781;DHT22;10050;55.492;13.506;2024-01-15T15:07:36;-1.70;99.90
19781;DHT22;10050;55.492;13.506;2024-01-15T15:10:05;-1.70;99.90
19781;DHT22;10050;55.492;13.506;2024-01-15T15:12:31;-1.70;99.90
19781;DHT22;10050;55.492;13.506;2024-01-15T15:14:57;-1.70;99.90
19781;DHT22;10050;55.492;13.506;2024-01-15T15:17:22;-1.80;99.90
19781;DHT22;10050;55.492;13.506;2024-01-15T15:19:48;-1.90;99.90
19781;DHT22;10050;55.492;13.506;2024-01-15T15:22:14;-1.90;99.90
19781;DHT22;10050;55.492;13.506;2024-01-15T15:24:40;-2.00;99.90
19781;DHT22;10050;55.492;13.506;2024-01-15T15:27:05;-2.00;99.90
19781;DHT22;10050;55.492;13.506;2024-01-15T15:29:32;-2.00;99.90
19781;DHT22;10050;55.492;13.506;2024-01-15T15:31:58;-1.90;99.90
19781;DHT22;10050;55.492;13.506;2024-01-15T15:34:24;-2.00;99.90
19781;DHT22;10050;55.492;13.506;2024-01-15T15:36:49;-2.10;99.90
19781;DHT22;10050;55.492;13.506;2024-01-15T15:39:15;-2.10;99.90
19781;DHT22;10050;55.492;13.506;2024-01-15T15:41:41;-2.10;99.90
19781;DHT22;10050;55.492;13.506;2024-01-15T15:44:07;-2.10;99.90
19781;DHT22;10050;55.492;13.506;2024-01-15T15:46:35;-2.20;99.90
19781;DHT22;10050;55.492;13.506;2024-01-15T15:49:01;-2.20;99.90
19781;DHT22;10050;55.492;13.506;2024-01-15T15:51:33;-2.30;99.90
19781;DHT22;10050;55.492;13.506;2024-01-15T15:54:01;-2.30;99.90
19781;DHT22;10050;55.492;13.506;2024-01-15T15:56:26;-2.30;99.90
19781;DHT22;10050;55.492;13.506;2024-01-15T15:58:52;-2.30;99.90
19781;DHT22;10050;55.492;13.506;2024-01-15T16:01:18;-2.40;99.90
19781;DHT22;10050;55.492;13.506;2024-01-15T16:03:47;-2.40;99.90
19781;DHT22;10050;55.492;13.506;2024-01-15T16:06:13;-2.40;99.90
19781;DHT22;10050;55.492;13.506;2024-01-15T16:08:41;-2.50;99.90
19781;DHT22;10050;55.492;13.506;2024-01-15T16:11:09;-2.50;99.90
19781;DHT22;10050;55.492;13.506;2024-01-15T16:13:38;-2.50;99.90
19781;DHT22;10050;55.492;13.506;2024-01-15T16:16:04;-2.60;99.90
19781;DHT22;10050;55.492;13.506;2024-01-15T16:18:30;-2.60;99.90
19781;DHT22;10050;55.492;13.506;2024-01-15T16:20:56;-2.60;99.90
19781;DHT22;10050;55.492;13.506;2024-01-15T16:23:21;-2.60;99.90
19781;DHT22;10050;55.492;13.506;2024-01-15T16:25:47;-2.70;99.90
19781;DHT22;10050;55.492;13.506;2024-01-15T16:28:13;-2.80;99.90
19781;DHT22;10050;55.492;13.506;2024-01-15T16:30:38;-2.80;99.90
19781;DHT22;10050;55.492;13.506;2024-01-15T16:33:04;-2.80;99.90
19781;DHT22;10050;55.492;13.506;2024-01-15T16:35:30;-2.80;99.90
19781;DHT22;10050;55.492;13.506;2024-01-15T16:37:56;-2.90;99.90
19781;DHT22;10050;55.492;13.506;2024-01-15T16:40:21;-2.90;99.90
19781;DHT22;10050;55.492;13.506;2024-01-15T16:42:48;-2.80;99.90
19781;DHT22;10050;55.492;13.506;2024-01-15T16:45:14;-2.90;99.90
19781;DHT22;10050;55.492;13.506;2024-01-15T16:47:40;-2.80;99.90
19781;DHT22;10050;55.492;13.506;2024-01-15T16:50:05;-2.90;99.90
19781;DHT22;10050;55.492;13.506;2024-01-15T16:52:31;-3.00;99.90
19781;DHT22;10050;55.492;13.506;2024-01-15T16:54:57;-2.90;99.90
19781;DHT22;10050;55.492;13.506;2024-01-15T16:57:22;-3.00;99.90
19781;DHT22;10050;55.492;13.506;2024-01-15T16:59:49;-3.10;99.90
19781;DHT22;10050;55.492;13.506;2024-01-15T17:02:17;-3.20;99.90
19781;DHT22;10050;55.492;13.506;2024-01-15T17:04:43;-3.20;99.90
19781;DHT22;10050;55.492;13.506;2024-01-15T17:07:09;-3.20;99.90
19781;DHT22;10050;55.492;13.506;2024-01-15T17:09:38;-3.30;99.90
19781;DHT22;10050;55.492;13.506;2024-01-15T17:12:04;-3.30;99.90
19781;DHT22;10050;55.492;13.506;2024-01-15T17:14:30;-3.30;99.90
19781;DHT22;10050;55.492;13.506;2024-01-15T17:16:55;-3.30;99.90
19781;DHT22;10050;55.492;13.506;2024-01-15T17:19:21;-3.40;99.90
19781;DHT22;10050;55.492;13.506;2024-01-15T17:21:47;-3.40;99.90